createdAt,value
2023-05-03T00:00:08.298Z,96632.66
2023-05-03T00:02:12.145Z,96628.41
2023-05-03T00:04:16.979Z,96631.97
2023-05-03T00:06:19.861Z,96655.75
2023-05-03T00:08:22.671Z,96462.28
2023-05-03T00:10:25.605Z,96543.19
2023-05-03T00:12:28.425Z,96637.41
2023-05-03T00:14:31.294Z,96641.88
2023-05-03T00:16:34.157Z,96636.44
2023-05-03T00:18:37.029Z,96640.03
2023-05-03T00:20:41.179Z,96581.81
2023-05-03T00:22:44.052Z,96299.41
2023-05-03T00:24:46.859Z,96623.50
2023-05-03T00:26:49.628Z,96635.19
2023-05-03T00:28:52.497Z,96637.41
2023-05-03T00:30:55.418Z,96606.66
2023-05-03T00:32:58.854Z,96633.00
2023-05-03T00:35:01.946Z,96541.31
2023-05-03T00:37:06.651Z,96627.16
2023-05-03T00:39:09.775Z,96613.34
2023-05-03T00:41:13.082Z,96461.25
2023-05-03T00:43:15.914Z,96623.34
2023-05-03T00:45:20.012Z,96586.13
2023-05-03T00:47:23.325Z,96624.88
2023-05-03T00:49:26.570Z,96620.84
2023-05-03T00:51:29.431Z,96269.59
2023-05-03T00:53:34.668Z,96529.28
2023-05-03T00:55:37.749Z,96614.41
2023-05-03T00:57:40.883Z,96609.56
2023-05-03T00:59:44.933Z,96313.78
2023-05-03T01:01:50.330Z,96584.50
2023-05-03T01:03:53.745Z,96440.88
2023-05-03T01:06:07.931Z,96549.97
2023-05-03T01:08:16.489Z,96606.06
2023-05-03T01:10:26.990Z,96515.31
2023-05-03T01:12:39.721Z,96618.00
2023-05-03T01:14:48.079Z,96433.81
2023-05-03T01:16:55.055Z,96611.34
2023-05-03T01:19:02.802Z,96483.56
2023-05-03T01:21:06.828Z,96603.69
2023-05-03T01:23:15.676Z,96552.16
2023-05-03T01:25:19.841Z,96602.41
2023-05-03T01:27:22.619Z,96546.59
2023-05-03T01:29:25.481Z,96469.09
2023-05-03T01:31:34.046Z,96608.50
2023-05-03T01:33:45.703Z,96571.31
2023-05-03T01:35:56.003Z,96553.38
2023-05-03T01:37:58.835Z,96602.13
2023-05-03T01:40:04.996Z,96603.09
2023-05-03T01:42:09.920Z,96598.69
2023-05-03T01:44:13.167Z,96593.22
2023-05-03T01:46:16.425Z,96394.81
2023-05-03T01:48:21.004Z,96592.25
2023-05-03T01:50:24.111Z,96598.31
2023-05-03T01:52:27.053Z,96585.22
2023-05-03T01:54:29.868Z,96591.47
2023-05-03T01:56:36.120Z,96541.41
2023-05-03T01:58:40.271Z,96287.63
2023-05-03T02:00:43.208Z,96495.09
2023-05-03T02:02:46.263Z,96587.34
2023-05-03T02:04:49.061Z,96599.75
2023-05-03T02:06:52.011Z,96595.75
2023-05-03T02:08:55.046Z,96443.34
2023-05-03T02:10:57.826Z,96588.50
2023-05-03T02:13:00.675Z,96595.97
2023-05-03T02:15:05.632Z,96126.25
2023-05-03T02:17:08.855Z,96444.31
2023-05-03T02:19:11.674Z,96592.59
2023-05-03T02:21:14.793Z,96424.38
2023-05-03T02:23:17.651Z,96597.34
2023-05-03T02:25:20.666Z,96589.47
2023-05-03T02:27:23.566Z,96201.13
2023-05-03T02:29:27.279Z,96584.81
2023-05-03T02:31:31.928Z,96539.63
2023-05-03T02:33:35.468Z,96564.66
2023-05-03T02:35:38.607Z,96594.22
2023-05-03T02:37:43.098Z,96588.22
2023-05-03T02:39:48.253Z,96581.53
2023-05-03T02:41:52.151Z,96577.88
2023-05-03T02:43:54.998Z,96553.69
2023-05-03T02:45:58.199Z,96561.13
2023-05-03T02:48:03.435Z,96446.09
2023-05-03T02:50:07.903Z,96325.31
2023-05-03T02:52:14.205Z,96453.69
2023-05-03T02:54:16.980Z,96526.50
2023-05-03T02:56:20.886Z,96510.03
2023-05-03T02:58:23.739Z,96353.84
2023-05-03T03:00:26.780Z,96457.31
2023-05-03T03:02:29.741Z,96586.00
2023-05-03T03:04:34.268Z,96418.00
2023-05-03T03:06:37.686Z,96319.66
2023-05-03T03:08:40.628Z,96586.44
2023-05-03T03:10:44.340Z,96584.16
2023-05-03T03:12:48.332Z,96488.69
2023-05-03T03:14:59.954Z,96422.03
2023-05-03T03:17:08.965Z,96349.00
2023-05-03T03:19:11.858Z,96582.06
2023-05-03T03:21:16.056Z,96572.91
2023-05-03T03:23:19.447Z,96580.88
2023-05-03T03:25:23.144Z,96582.25
2023-05-03T03:27:26.181Z,96230.56
2023-05-03T03:29:31.301Z,96145.53
2023-05-03T03:31:34.611Z,96020.94
2023-05-03T03:33:37.883Z,96507.44
2023-05-03T03:35:47.033Z,96538.47
2023-05-03T03:37:51.950Z,96519.34
2023-05-03T03:39:56.423Z,96580.66
2023-05-03T03:42:00.196Z,96599.94
2023-05-03T03:44:03.012Z,96570.50
2023-05-03T03:46:06.087Z,96575.19
2023-05-03T03:48:10.235Z,96586.81
2023-05-03T03:50:13.182Z,96575.16
2023-05-03T03:52:16.125Z,96360.06
2023-05-03T03:54:20.324Z,96495.25
2023-05-03T03:56:26.283Z,96596.81
2023-05-03T03:58:31.174Z,96618.97
2023-05-03T04:00:35.629Z,96551.09
2023-05-03T04:02:45.322Z,96586.81
2023-05-03T04:04:53.504Z,96615.19
2023-05-03T04:06:56.603Z,96615.19
2023-05-03T04:09:02.155Z,96475.44
2023-05-03T04:11:13.048Z,96585.97
2023-05-03T04:13:22.707Z,96603.03
2023-05-03T04:15:28.034Z,96607.56
2023-05-03T04:17:34.985Z,96473.06
2023-05-03T04:19:41.421Z,96612.63
2023-05-03T04:21:44.627Z,96619.44
2023-05-03T04:23:47.423Z,96618.25
2023-05-03T04:25:52.721Z,96615.47
2023-05-03T04:27:58.324Z,96625.84
2023-05-03T04:30:02.791Z,96616.66
2023-05-03T04:32:06.790Z,96445.16
2023-05-03T04:34:14.883Z,96612.19
2023-05-03T04:36:20.000Z,96625.41
2023-05-03T04:38:24.297Z,96618.69
2023-05-03T04:40:27.641Z,96613.75
2023-05-03T04:42:43.715Z,96626.28
2023-05-03T04:44:48.229Z,96626.13
2023-05-03T04:46:51.483Z,96632.81
2023-05-03T04:48:54.658Z,96628.78
2023-05-03T04:50:58.134Z,96620.59
2023-05-03T04:53:01.248Z,96627.34
2023-05-03T04:55:06.305Z,96623.41
2023-05-03T04:57:10.255Z,96635.53
2023-05-03T04:59:13.139Z,96609.38
2023-05-03T05:01:18.486Z,96639.50
2023-05-03T05:03:22.663Z,96529.44
2023-05-03T05:05:26.613Z,96633.06
2023-05-03T05:07:29.543Z,96643.66
2023-05-03T05:09:32.374Z,96638.69
2023-05-03T05:11:37.700Z,96635.56
2023-05-03T05:13:40.576Z,96640.47
2023-05-03T05:15:43.388Z,96437.22
2023-05-03T05:17:49.935Z,96645.06
2023-05-03T05:19:55.196Z,96646.16
2023-05-03T05:21:58.051Z,96646.69
2023-05-03T05:24:07.246Z,96610.59
2023-05-03T05:26:10.454Z,96650.88
2023-05-03T05:28:14.309Z,96650.16
2023-05-03T05:30:17.534Z,96565.22
2023-05-03T05:32:20.374Z,96654.13
2023-05-03T05:34:24.622Z,96651.63
2023-05-03T05:36:27.639Z,96596.38
2023-05-03T05:38:31.049Z,96578.22
2023-05-03T05:40:35.791Z,96661.88
2023-05-03T05:42:38.686Z,96663.06
2023-05-03T05:44:43.150Z,96658.75
2023-05-03T05:46:46.620Z,96661.59
2023-05-03T05:48:51.316Z,96626.91
2023-05-03T05:50:56.542Z,96573.63
2023-05-03T05:52:59.643Z,96658.47
2023-05-03T05:55:07.735Z,96659.25
2023-05-03T05:57:10.760Z,96657.69
2023-05-03T05:59:13.984Z,96651.69
2023-05-03T06:01:17.511Z,96662.19
2023-05-03T06:03:20.527Z,96657.03
2023-05-03T06:05:26.152Z,96651.56
2023-05-03T06:07:31.168Z,96650.50
2023-05-03T06:09:34.103Z,96661.72
2023-05-03T06:11:39.277Z,96655.09
2023-05-03T06:13:43.827Z,96652.81
2023-05-03T06:15:48.859Z,96643.13
2023-05-03T06:17:51.725Z,96653.91
2023-05-03T06:19:54.523Z,96605.19
2023-05-03T06:21:57.812Z,96656.97
2023-05-03T06:24:02.741Z,96658.34
2023-05-03T06:26:05.511Z,96652.81
2023-05-03T06:28:09.190Z,96653.72
2023-05-03T06:30:13.831Z,96658.75
2023-05-03T06:32:17.692Z,96657.72
2023-05-03T06:34:21.722Z,96625.06
2023-05-03T06:36:27.622Z,96544.59
2023-05-03T06:38:30.416Z,96655.47
2023-05-03T06:40:35.986Z,96498.59
2023-05-03T06:42:40.574Z,96662.22
2023-05-03T06:44:48.243Z,96667.66
2023-05-03T06:46:51.169Z,96568.03
2023-05-03T06:48:56.298Z,96669.44
2023-05-03T06:50:59.113Z,96659.69
2023-05-03T06:53:01.909Z,96654.91
2023-05-03T06:55:06.055Z,96666.72
2023-05-03T06:57:10.470Z,96543.84
2023-05-03T06:59:13.591Z,96565.78
2023-05-03T07:01:17.488Z,96650.72
2023-05-03T07:03:20.305Z,96647.06
2023-05-03T07:05:23.165Z,96646.25
2023-05-03T07:07:25.892Z,96603.19
2023-05-03T07:09:42.283Z,96651.28
2023-05-03T07:11:50.388Z,96651.59
2023-05-03T07:13:55.550Z,96651.41
2023-05-03T07:15:59.890Z,96657.50
2023-05-03T07:18:04.579Z,96519.19
2023-05-03T07:20:08.782Z,96647.59
2023-05-03T07:22:11.911Z,96647.25
2023-05-03T07:24:14.856Z,96646.34
2023-05-03T07:26:17.651Z,96556.22
2023-05-03T07:28:20.708Z,96562.06
2023-05-03T07:30:25.208Z,96639.38
2023-05-03T07:32:28.065Z,96651.03
2023-05-03T07:34:32.651Z,96640.59
2023-05-03T07:36:35.443Z,96649.88
2023-05-03T07:38:38.185Z,96644.81
2023-05-03T07:40:42.179Z,96560.59
2023-05-03T07:42:44.954Z,96554.28
2023-05-03T07:44:47.721Z,96643.00
2023-05-03T07:46:51.887Z,96553.59
2023-05-03T07:48:54.728Z,96638.19
2023-05-03T07:50:57.509Z,96638.47
2023-05-03T07:53:00.342Z,96637.84
2023-05-03T07:55:03.411Z,96645.78
2023-05-03T07:57:07.283Z,96645.50
2023-05-03T07:59:10.697Z,96645.09
2023-05-03T08:01:13.548Z,96648.16
2023-05-03T08:03:17.850Z,96637.75
2023-05-03T08:05:20.889Z,96648.69
2023-05-03T08:07:23.968Z,96642.50
2023-05-03T08:09:28.184Z,96635.00
2023-05-03T08:11:31.115Z,96640.47
2023-05-03T08:13:33.940Z,96497.41
2023-05-03T08:15:36.769Z,96637.06
2023-05-03T08:17:43.535Z,96633.41
2023-05-03T08:19:47.755Z,96535.84
2023-05-03T08:21:52.342Z,96628.66
2023-05-03T08:23:56.060Z,96632.09
2023-05-03T08:26:00.253Z,96631.59
2023-05-03T08:28:03.074Z,96638.19
2023-05-03T08:30:07.071Z,96636.09
2023-05-03T08:32:09.916Z,96530.31
2023-05-03T08:34:13.191Z,96641.25
2023-05-03T08:36:17.411Z,96637.59
2023-05-03T08:38:20.132Z,96551.69
2023-05-03T08:40:23.970Z,96641.09
2023-05-03T08:42:30.613Z,96641.25
2023-05-03T08:44:37.889Z,96639.63
2023-05-03T08:46:40.809Z,96635.44
2023-05-03T08:48:44.494Z,96611.88
2023-05-03T08:50:47.305Z,96637.66
2023-05-03T08:52:51.646Z,96611.94
2023-05-03T08:54:54.391Z,96637.47
2023-05-03T08:56:57.203Z,96641.38
2023-05-03T08:59:07.278Z,96375.88
2023-05-03T09:01:10.928Z,96639.84
2023-05-03T09:03:13.834Z,96631.69
2023-05-03T09:05:38.946Z,96647.31
2023-05-03T09:07:41.865Z,96644.31
2023-05-03T09:09:47.301Z,96649.53
2023-05-03T09:11:50.391Z,96650.03
2023-05-03T09:13:53.926Z,96443.63
2023-05-03T09:15:58.076Z,96649.88
2023-05-03T09:18:11.853Z,96647.34
2023-05-03T09:20:14.738Z,96645.97
2023-05-03T09:22:17.584Z,96647.03
2023-05-03T09:24:21.447Z,96642.09
2023-05-03T09:26:34.063Z,96634.31
2023-05-03T09:28:42.847Z,96641.19
2023-05-03T09:30:46.487Z,96550.34
2023-05-03T09:32:49.797Z,96643.81
2023-05-03T09:34:52.669Z,96623.09
2023-05-03T09:36:56.274Z,96624.13
2023-05-03T09:38:59.002Z,96626.88
2023-05-03T09:41:02.581Z,96618.06
2023-05-03T09:43:11.528Z,96628.56
2023-05-03T09:45:24.818Z,96628.00
2023-05-03T09:47:31.787Z,96614.72
2023-05-03T09:49:36.899Z,96615.28
2023-05-03T09:51:41.617Z,96616.88
2023-05-03T09:53:44.318Z,96608.75
2023-05-03T09:55:48.824Z,96611.97
2023-05-03T09:57:56.318Z,96615.81
2023-05-03T10:00:00.407Z,96615.50
2023-05-03T10:02:05.502Z,96609.31
2023-05-03T10:04:09.417Z,96613.25
2023-05-03T10:06:23.640Z,96605.94
2023-05-03T10:08:34.111Z,96581.38
2023-05-03T10:10:37.614Z,96603.53
2023-05-03T10:12:40.588Z,96609.75
2023-05-03T10:14:45.588Z,96623.66
2023-05-03T10:16:52.714Z,96472.47
2023-05-03T10:19:00.449Z,96604.50
2023-05-03T10:21:08.414Z,96602.84
2023-05-03T10:23:12.597Z,96606.75
2023-05-03T10:25:16.224Z,96601.47
2023-05-03T10:27:19.143Z,96601.66
2023-05-03T10:29:48.795Z,96595.63
2023-05-03T10:31:53.115Z,96595.56
2023-05-03T10:33:55.955Z,96592.00
2023-05-03T10:35:59.130Z,96596.56
2023-05-03T10:38:15.478Z,96592.25
2023-05-03T10:40:19.088Z,96557.38
2023-05-03T10:42:23.700Z,96589.28
2023-05-03T10:44:27.515Z,96591.63
2023-05-03T10:46:35.860Z,96508.34
2023-05-03T10:48:41.039Z,96574.63
2023-05-03T10:50:44.248Z,96578.81
2023-05-03T10:52:48.692Z,96583.63
2023-05-03T10:54:52.473Z,96569.81
2023-05-03T10:56:57.462Z,96571.56
2023-05-03T10:59:00.227Z,96565.19
2023-05-03T11:01:04.091Z,96575.63
2023-05-03T11:03:35.621Z,96565.06
2023-05-03T11:05:40.897Z,96564.84
2023-05-03T11:07:43.639Z,96561.84
2023-05-03T11:09:47.652Z,96560.56
2023-05-03T11:11:50.556Z,96555.19
2023-05-03T11:13:54.161Z,96559.00
2023-05-03T11:15:57.465Z,96559.19
2023-05-03T11:18:00.571Z,96551.50
2023-05-03T11:20:03.957Z,96520.34
2023-05-03T11:22:08.068Z,96542.16
2023-05-03T11:24:10.946Z,96542.66
2023-05-03T11:26:14.993Z,96540.13
2023-05-03T11:28:17.759Z,96541.84
2023-05-03T11:30:20.580Z,96526.34
2023-05-03T11:32:23.464Z,96534.94
2023-05-03T11:34:26.425Z,96534.88
2023-05-03T11:36:30.607Z,96520.94
2023-05-03T11:38:35.516Z,96525.56
2023-05-03T11:40:39.629Z,96520.44
2023-05-03T11:42:52.144Z,96514.97
2023-05-03T11:44:55.201Z,96514.38
2023-05-03T11:46:58.357Z,96528.09
2023-05-03T11:49:02.273Z,96476.59
2023-05-03T11:51:10.950Z,96508.09
2023-05-03T11:53:14.062Z,96520.22
2023-05-03T11:55:18.164Z,96531.53
2023-05-03T11:57:21.827Z,96525.06
2023-05-03T11:59:35.845Z,96374.28
2023-05-03T12:01:38.793Z,96513.72
2023-05-03T12:03:41.684Z,96526.69
2023-05-03T12:05:45.120Z,96521.81
2023-05-03T12:07:48.327Z,96525.41
2023-05-03T12:10:09.487Z,96521.34
2023-05-03T12:12:26.638Z,96514.50
2023-05-03T12:14:58.288Z,96513.50
2023-05-03T12:17:01.404Z,96514.66
2023-05-03T12:19:04.577Z,96521.91
2023-05-03T12:21:30.729Z,96516.41
2023-05-03T12:23:30.325Z,96520.50
2023-05-03T12:25:34.777Z,96524.31
2023-05-03T12:27:40.900Z,96519.38
2023-05-03T12:29:46.159Z,96471.88
2023-05-03T12:31:50.092Z,96516.94
2023-05-03T12:35:59.540Z,96502.22
2023-05-03T12:38:03.974Z,96496.09
2023-05-03T12:40:31.583Z,96498.44
2023-05-03T12:42:33.795Z,96491.47
2023-05-03T12:44:42.872Z,96484.09
2023-05-03T12:46:46.202Z,96490.75
2023-05-03T12:48:49.954Z,96483.22
2023-05-03T12:51:13.740Z,96478.66
2023-05-03T12:53:18.966Z,96446.16
2023-05-03T12:55:25.360Z,96478.19
2023-05-03T12:57:30.588Z,96475.94
2023-05-03T12:59:41.248Z,96478.53
2023-05-03T13:03:09.826Z,96480.28
2023-05-03T13:04:30.591Z,96492.28
2023-05-03T13:06:41.273Z,96484.84
2023-05-03T13:08:50.037Z,96476.34
2023-05-03T13:10:53.709Z,96330.56
2023-05-03T13:12:56.902Z,96470.63
2023-05-03T13:15:00.257Z,96479.66
2023-05-03T13:17:04.596Z,96450.50
2023-05-03T13:19:07.509Z,96402.47
2023-05-03T13:21:11.397Z,96353.16
2023-05-03T13:23:14.103Z,96466.63
2023-05-03T13:25:17.067Z,96464.34
2023-05-03T13:27:19.963Z,96445.25
2023-05-03T13:29:24.082Z,96453.94
2023-05-03T13:31:30.138Z,96449.22
2023-05-03T13:33:37.950Z,96447.81
2023-05-03T13:35:40.812Z,96443.56
2023-05-03T13:37:43.690Z,96444.03
2023-05-03T13:39:46.555Z,96319.19
2023-05-03T13:41:49.481Z,96328.19
2023-05-03T13:43:53.015Z,96439.47
2023-05-03T13:46:01.505Z,96443.59
2023-05-03T13:48:15.136Z,96321.69
2023-05-03T13:50:23.058Z,96430.56
2023-05-03T13:52:25.965Z,96435.09
2023-05-03T13:54:30.112Z,96439.59
2023-05-03T13:56:34.889Z,96436.91
2023-05-03T13:58:39.628Z,96437.91
2023-05-03T14:00:42.410Z,96426.91
2023-05-03T14:02:45.197Z,96431.78
2023-05-03T14:04:47.958Z,96427.47
2023-05-03T14:06:52.183Z,96424.47
2023-05-03T14:08:56.555Z,96418.34
2023-05-03T14:11:00.216Z,96426.94
2023-05-03T14:13:03.602Z,96436.47
2023-05-03T14:15:07.690Z,96423.84
2023-05-03T14:17:11.137Z,96386.16
2023-05-03T14:19:15.415Z,96422.53
2023-05-03T14:21:19.383Z,96404.66
2023-05-03T14:23:24.454Z,96427.94
2023-05-03T14:25:28.002Z,96414.72
2023-05-03T14:27:30.846Z,96406.19
2023-05-03T14:29:34.642Z,96420.44
2023-05-03T14:31:37.520Z,96410.16
2023-05-03T14:33:41.077Z,96406.47
2023-05-03T14:35:43.985Z,96400.59
2023-05-03T14:37:47.073Z,96394.63
2023-05-03T14:39:52.203Z,96412.50
2023-05-03T14:41:56.373Z,96245.69
2023-05-03T14:43:59.472Z,96395.31
2023-05-03T14:46:02.340Z,96354.41
2023-05-03T14:48:06.075Z,96385.88
2023-05-03T14:50:10.286Z,96374.84
2023-05-03T14:52:13.330Z,96380.31
2023-05-03T14:54:16.453Z,96384.34
2023-05-03T14:56:21.138Z,96313.88
2023-05-03T14:58:23.939Z,96375.88
2023-05-03T15:00:26.773Z,96345.28
2023-05-03T15:02:30.012Z,96383.16
2023-05-03T15:04:35.094Z,96383.75
2023-05-03T15:06:42.845Z,96295.97
2023-05-03T15:08:45.918Z,96376.22
2023-05-03T15:10:48.795Z,96377.00
2023-05-03T15:12:53.155Z,96371.78
2023-05-03T15:14:55.941Z,96384.63
2023-05-03T15:16:58.743Z,96373.19
2023-05-03T15:19:01.937Z,96290.47
2023-05-03T15:21:05.236Z,96095.91
2023-05-03T15:23:08.138Z,96264.84
2023-05-03T15:25:11.621Z,96336.59
2023-05-03T15:27:14.579Z,96384.53
2023-05-03T15:29:18.710Z,96369.28
2023-05-03T15:31:21.741Z,96306.41
2023-05-03T15:33:24.681Z,96330.00
2023-05-03T15:35:27.874Z,96319.31
2023-05-03T15:37:36.931Z,96379.00
2023-05-03T15:39:39.978Z,96382.63
2023-05-03T15:41:45.465Z,96260.69
2023-05-03T15:43:48.272Z,96062.16
2023-05-03T15:45:52.508Z,95987.84
2023-05-03T15:47:56.055Z,96334.63
2023-05-03T15:49:58.879Z,96378.44
2023-05-03T15:52:01.613Z,96387.09
2023-05-03T15:54:04.748Z,96374.16
2023-05-03T15:56:09.118Z,96340.88
2023-05-03T15:58:11.972Z,96369.97
2023-05-03T16:00:17.747Z,96337.94
2023-05-03T16:02:21.992Z,96379.91
2023-05-03T16:04:25.140Z,96380.19
2023-05-03T16:06:28.380Z,96369.16
2023-05-03T16:08:31.540Z,96369.53
2023-05-03T16:10:34.416Z,96320.78
2023-05-03T16:12:37.420Z,96366.19
2023-05-03T16:14:40.426Z,96378.66
2023-05-03T16:16:45.058Z,96378.91
2023-05-03T16:18:49.229Z,96384.06
2023-05-03T16:20:52.449Z,96377.72
2023-05-03T16:22:55.548Z,96368.00
2023-05-03T16:24:58.304Z,96365.50
2023-05-03T16:27:01.855Z,96376.75
2023-05-03T16:29:05.642Z,96374.75
2023-05-03T16:31:08.565Z,96367.44
2023-05-03T16:33:11.841Z,96251.06
2023-05-03T16:35:16.011Z,96269.50
2023-05-03T16:37:19.215Z,96359.72
2023-05-03T16:39:22.130Z,96303.09
2023-05-03T16:41:25.315Z,96360.13
2023-05-03T16:43:28.500Z,96280.56
2023-05-03T16:45:31.335Z,96352.88
2023-05-03T16:47:34.962Z,96229.72
2023-05-03T16:49:37.970Z,96354.16
2023-05-03T16:51:42.121Z,96210.38
2023-05-03T16:53:45.040Z,96369.78
2023-05-03T16:55:47.866Z,96071.09
2023-05-03T16:57:50.847Z,96307.56
2023-05-03T16:59:53.571Z,96280.56
2023-05-03T17:01:56.417Z,96344.56
2023-05-03T17:03:59.231Z,96345.13
2023-05-03T17:06:03.735Z,96353.88
2023-05-03T17:08:09.009Z,95982.47
2023-05-03T17:10:12.738Z,96342.09
2023-05-03T17:12:16.311Z,96264.72
2023-05-03T17:14:19.136Z,96345.50
2023-05-03T17:16:22.998Z,96148.06
2023-05-03T17:18:34.623Z,96305.94
2023-05-03T17:20:37.808Z,96338.03
2023-05-03T17:22:40.529Z,96262.97
2023-05-03T17:24:44.676Z,96336.53
2023-05-03T17:26:47.406Z,96303.25
2023-05-03T17:28:50.172Z,96338.59
2023-05-03T17:30:55.035Z,96164.00
2023-05-03T17:32:57.873Z,96094.75
2023-05-03T17:35:00.655Z,96313.03
2023-05-03T17:37:03.667Z,96347.38
2023-05-03T17:39:06.429Z,96312.59
2023-05-03T17:41:11.528Z,96332.84
2023-05-03T17:43:16.490Z,96281.00
2023-05-03T17:45:19.427Z,96249.38
2023-05-03T17:47:22.832Z,96338.66
2023-05-03T17:49:26.135Z,96339.38
2023-05-03T17:51:32.006Z,96337.28
2023-05-03T17:53:35.054Z,96271.28
2023-05-03T17:55:38.820Z,96253.94
2023-05-03T17:57:45.596Z,96354.41
2023-05-03T17:59:48.712Z,96256.44
2023-05-03T18:01:51.525Z,96325.22
2023-05-03T18:03:54.538Z,96349.84
2023-05-03T18:05:57.388Z,96345.91
2023-05-03T18:08:00.155Z,96355.72
2023-05-03T18:10:03.086Z,96229.09
2023-05-03T18:12:06.448Z,96293.56
2023-05-03T18:14:11.577Z,96350.50
2023-05-03T18:16:14.437Z,96324.13
2023-05-03T18:18:17.330Z,96352.41
2023-05-03T18:20:20.215Z,96301.50
2023-05-03T18:22:23.346Z,96380.19
2023-05-03T18:24:26.518Z,96361.03
2023-05-03T18:26:29.355Z,96363.91
2023-05-03T18:28:32.103Z,96286.97
2023-05-03T18:30:36.231Z,96322.88
2023-05-03T18:32:39.087Z,96368.78
2023-05-03T18:34:41.961Z,96365.88
2023-05-03T18:36:44.722Z,96264.91
2023-05-03T18:38:48.600Z,96369.75
2023-05-03T18:40:51.615Z,96370.47
2023-05-03T18:42:54.423Z,96375.91
2023-05-03T18:44:57.395Z,96341.41
2023-05-03T18:47:01.583Z,96368.13
2023-05-03T18:49:04.903Z,96382.81
2023-05-03T18:51:08.231Z,96383.09
2023-05-03T18:53:11.446Z,96372.94
2023-05-03T18:55:14.204Z,96371.19
2023-05-03T18:57:17.417Z,96375.47
2023-05-03T18:59:20.228Z,96335.34
2023-05-03T19:01:23.173Z,96379.31
2023-05-03T19:03:28.073Z,96380.53
2023-05-03T19:05:30.854Z,96384.16
2023-05-03T19:07:33.690Z,96262.97
2023-05-03T19:09:40.272Z,96290.53
2023-05-03T19:11:44.083Z,96386.94
2023-05-03T19:13:47.334Z,96376.72
2023-05-03T19:15:50.186Z,96385.66
2023-05-03T19:17:53.152Z,96337.16
2023-05-03T19:19:57.385Z,96383.44
2023-05-03T19:22:00.175Z,96377.16
2023-05-03T19:24:03.838Z,96164.28
2023-05-03T19:26:07.117Z,96373.72
2023-05-03T19:28:11.535Z,96269.25
2023-05-03T19:30:14.779Z,96287.66
2023-05-03T19:32:17.529Z,96380.53
2023-05-03T19:34:20.336Z,96388.09
2023-05-03T19:36:24.462Z,96393.53
2023-05-03T19:38:27.450Z,96383.25
2023-05-03T19:40:30.216Z,96385.44
2023-05-03T19:42:32.957Z,96342.06
2023-05-03T19:44:35.882Z,96311.72
2023-05-03T19:46:38.869Z,96346.13
2023-05-03T19:48:41.726Z,96393.00
2023-05-03T19:50:44.617Z,96390.84
2023-05-03T19:52:52.508Z,96358.31
2023-05-03T19:54:56.328Z,96395.69
2023-05-03T19:56:59.031Z,96392.41
2023-05-03T19:59:01.821Z,96369.38
2023-05-03T20:01:05.037Z,96376.66
2023-05-03T20:03:07.905Z,96399.44
2023-05-03T20:05:10.901Z,96398.88
2023-05-03T20:07:13.695Z,96320.22
2023-05-03T20:09:17.980Z,96396.94
2023-05-03T20:11:20.850Z,96401.00
2023-05-03T20:13:25.856Z,96397.44
2023-05-03T20:15:28.752Z,96406.38
2023-05-03T20:17:31.581Z,96310.97
2023-05-03T20:19:34.461Z,96319.94
2023-05-03T20:21:37.288Z,96405.59
2023-05-03T20:23:40.030Z,96359.81
2023-05-03T20:25:44.335Z,96160.91
2023-05-03T20:27:47.335Z,96364.13
2023-05-03T20:29:50.095Z,96409.63
2023-05-03T20:31:53.446Z,96345.34
2023-05-03T20:33:56.738Z,96406.91
2023-05-03T20:35:59.528Z,96412.44
2023-05-03T20:38:02.414Z,96347.13
2023-05-03T20:40:06.415Z,96415.66
2023-05-03T20:42:10.738Z,96301.81
2023-05-03T20:44:13.748Z,96407.28
2023-05-03T20:46:16.910Z,96405.34
2023-05-03T20:48:20.564Z,96415.31
2023-05-03T20:50:23.463Z,96380.81
2023-05-03T20:52:26.485Z,96401.75
2023-05-03T20:54:29.361Z,96338.25
2023-05-03T20:56:33.132Z,96403.34
2023-05-03T20:58:37.434Z,96383.81
2023-05-03T21:00:40.282Z,96406.81
2023-05-03T21:02:43.239Z,96400.59
2023-05-03T21:04:46.126Z,96315.44
2023-05-03T21:06:49.170Z,96384.06
2023-05-03T21:08:52.894Z,96391.38
2023-05-03T21:10:55.675Z,96389.22
2023-05-03T21:12:58.604Z,96294.47
2023-05-03T21:15:03.172Z,96395.88
2023-05-03T21:17:06.524Z,96394.47
2023-05-03T21:19:09.269Z,96395.00
2023-05-03T21:21:11.961Z,96397.75
2023-05-03T21:23:14.665Z,96349.28
2023-05-03T21:25:17.447Z,96398.59
2023-05-03T21:27:21.998Z,96395.06
2023-05-03T21:29:24.802Z,96261.44
2023-05-03T21:31:28.987Z,96347.00
2023-05-03T21:33:31.784Z,96385.97
2023-05-03T21:35:35.614Z,96384.22
2023-05-03T21:37:38.443Z,96303.94
2023-05-03T21:39:45.238Z,96384.56
2023-05-03T21:41:53.468Z,96380.88
2023-05-03T21:43:56.302Z,96375.72
2023-05-03T21:45:59.441Z,96385.06
2023-05-03T21:48:03.565Z,96312.81
2023-05-03T21:50:07.809Z,96410.56
2023-05-03T21:52:10.813Z,96248.38
2023-05-03T21:54:13.600Z,96374.97
2023-05-03T21:56:16.593Z,96371.59
2023-05-03T21:58:19.342Z,96373.94
2023-05-03T22:00:22.326Z,96372.41
2023-05-03T22:02:25.594Z,96107.00
2023-05-03T22:04:30.806Z,96370.69
2023-05-03T22:06:33.604Z,96371.13
2023-05-03T22:08:36.530Z,96323.69
2023-05-03T22:10:39.323Z,95930.34
2023-05-03T22:12:42.143Z,96077.13
2023-05-03T22:14:45.000Z,96239.78
2023-05-03T22:16:47.745Z,96129.78
2023-05-03T22:18:50.537Z,96343.09
2023-05-03T22:20:54.577Z,96369.00
2023-05-03T22:22:57.739Z,96158.53
2023-05-03T22:25:02.473Z,96280.84
2023-05-03T22:27:05.370Z,96338.19
2023-05-03T22:29:08.569Z,96359.88
2023-05-03T22:31:13.403Z,96306.50
2023-05-03T22:33:16.184Z,96358.06
2023-05-03T22:35:19.089Z,96329.25
2023-05-03T22:37:23.113Z,96350.03
2023-05-03T22:39:25.827Z,96360.72
2023-05-03T22:41:28.554Z,96043.81
2023-05-03T22:43:31.458Z,96255.56
2023-05-03T22:45:34.462Z,96260.16
2023-05-03T22:47:37.398Z,96361.19
2023-05-03T22:49:40.109Z,96354.44
2023-05-03T22:51:42.794Z,96274.25
2023-05-03T22:53:46.923Z,96139.72
2023-05-03T22:55:56.499Z,96351.91
2023-05-03T22:57:59.198Z,96300.41
2023-05-03T23:00:02.257Z,96040.56
2023-05-03T23:02:05.216Z,96349.94
2023-05-03T23:04:07.926Z,96283.13
2023-05-03T23:06:10.792Z,96310.41
2023-05-03T23:08:14.202Z,96306.91
2023-05-03T23:10:18.511Z,96235.88
2023-05-03T23:12:21.237Z,96346.44
2023-05-03T23:14:24.070Z,96339.00
2023-05-03T23:16:27.028Z,96279.84
2023-05-03T23:18:29.782Z,96339.03
2023-05-03T23:20:32.800Z,96340.81
2023-05-03T23:22:35.703Z,96166.97
2023-05-03T23:24:39.510Z,96337.72
2023-05-03T23:26:43.619Z,96330.53
2023-05-03T23:28:48.636Z,96328.75
2023-05-03T23:30:52.110Z,96158.47
2023-05-03T23:32:55.125Z,96343.03
2023-05-03T23:34:58.245Z,96161.97
2023-05-03T23:37:01.022Z,96340.16
2023-05-03T23:39:04.433Z,96299.16
2023-05-03T23:41:07.263Z,96341.16
2023-05-03T23:43:11.407Z,96269.84
2023-05-03T23:45:14.120Z,95846.16
2023-05-03T23:47:16.916Z,96332.75
2023-05-03T23:49:20.046Z,96340.66
2023-05-03T23:51:22.879Z,96325.16
2023-05-03T23:53:25.758Z,96324.50
2023-05-03T23:55:28.530Z,96319.47
2023-05-03T23:57:31.282Z,96319.78
2023-05-03T23:59:35.365Z,96243.06
